Time;durP1;ratioP1;P1;durP2;ratioP2;P2;SDS_P1;SDS_P2;PMS_P1;PMS_P2;Temp;Humidity;BMP_temperature;BMP_pressure;BME280_temperature;BME280_humidity;BME280_pressure;Samples;Min_cycle;Max_cycle;Signal;HPM_P1;HPM_P2
2022/01/14 00:00:44;;;;;;;5.63;2.58;;;1.00;81.60;;;;;;5080279;28;20391;-74
2022/01/14 00:03:11;;;;;;;4.72;1.98;;;0.80;82.50;;;;;;5086454;28;20024;-74
2022/01/14 00:05:37;;;;;;;4.38;1.67;;;0.80;82.50;;;;;;5090864;28;20538;-73
2022/01/14 00:08:04;;;;;;;3.78;1.70;;;0.80;80.80;;;;;;5089662;28;20108;-73
2022/01/14 00:10:31;;;;;;;3.70;1.80;;;1.00;79.90;;;;;;5088622;28;20414;-73
2022/01/14 00:13:06;;;;;;;3.83;1.73;;;0.90;81.10;;;;;;5090653;28;20059;-74
2022/01/14 00:15:34;;;;;;;;;;;0.90;80.20;;;;;;5088359;28;20036;-73
2022/01/14 00:18:02;;;;;;;5.03;1.75;;;1.10;79.70;;;;;;5090445;28;20320;-74
2022/01/14 00:20:28;;;;;;;5.03;1.80;;;1.10;80.00;;;;;;5070738;28;20089;-74
2022/01/14 00:22:54;;;;;;;3.47;1.73;;;1.10;79.00;;;;;;5089149;28;20111;-74
2022/01/14 00:33:26;;;;;;;6.15;2.38;;;0.80;80.00;;;;;;5088236;28;20030;-73
2022/01/14 00:35:52;;;;;;;4.07;1.83;;;0.90;80.70;;;;;;5088110;28;20040;-74
2022/01/14 00:38:17;;;;;;;2.95;1.27;;;1.00;80.20;;;;;;5088998;28;20458;-73
2022/01/14 00:40:43;;;;;;;4.30;2.00;;;0.90;80.60;;;;;;5090316;28;20112;-73
2022/01/14 00:43:10;;;;;;;4.78;2.38;;;1.20;79.70;;;;;;5089459;28;20028;-73
2022/01/14 00:45:36;;;;;;;4.38;2.33;;;1.30;79.10;;;;;;5088712;28;20020;-73
2022/01/14 00:48:02;;;;;;;4.13;2.25;;;1.30;78.90;;;;;;5088394;28;20103;-73
2022/01/14 00:50:29;;;;;;;5.78;2.17;;;1.30;79.10;;;;;;5089317;28;20035;-73
2022/01/14 00:52:55;;;;;;;5.95;1.75;;;1.40;78.80;;;;;;5089452;28;20032;-73
2022/01/14 00:55:29;;;;;;;3.42;1.38;;;1.50;78.20;;;;;;5088798;28;20525;-73
2022/01/14 01:00:29;;;;;;;5.88;2.33;;;1.60;78.10;;;;;;5089919;28;20121;-74
2022/01/14 01:02:55;;;;;;;4.25;2.22;;;1.70;77.80;;;;;;5085168;28;20037;-73
2022/01/14 01:05:21;;;;;;;4.53;2.17;;;1.50;78.20;;;;;;5086250;28;20043;-73
2022/01/14 01:08:02;;;;;;;5.25;2.30;;;1.50;78.80;;;;;;5078457;28;20101;-74
2022/01/14 01:10:28;;;;;;;4.38;2.08;;;1.40;78.50;;;;;;5089932;28;20108;-73
2022/01/14 01:13:01;;;;;;;8.18;2.05;;;1.40;78.70;;;;;;5089520;28;20478;-74
2022/01/14 01:15:26;;;;;;;5.63;1.98;;;1.30;79.00;;;;;;5090908;28;20032;-73
2022/01/14 01:17:52;;;;;;;4.05;1.80;;;1.30;79.50;;;;;;5090058;28;20543;-73
2022/01/14 01:20:18;;;;;;;3.33;1.83;;;1.10;79.90;;;;;;5096025;28;20070;-73
2022/01/14 01:22:49;;;;;;;6.78;2.80;;;1.30;79.80;;;;;;5075520;28;20485;-73
2022/01/14 01:25:18;;;;;;;6.55;2.20;;;1.40;79.60;;;;;;5092268;28;20044;-74
2022/01/14 01:27:47;;;;;;;4.80;1.95;;;1.60;78.60;;;;;;5093377;28;20058;-73
2022/01/14 01:30:48;;;;;;;12.05;4.55;;;1.70;78.50;;;;;;5092547;28;20028;-73
2022/01/14 01:33:07;;;;;;;8.23;4.13;;;1.50;79.90;;;;;;5092304;28;20044;-73
2022/01/14 01:35:34;;;;;;;8.60;3.70;;;1.00;82.50;;;;;;5092806;28;20119;-73
2022/01/14 01:38:00;;;;;;;5.78;2.45;;;0.70;83.00;;;;;;5091892;28;20069;-73
2022/01/14 01:40:27;;;;;;;5.15;2.45;;;0.90;83.00;;;;;;5090581;28;20051;-73
2022/01/14 01:42:56;;;;;;;11.55;3.50;;;1.30;81.10;;;;;;5087032;28;20047;-73
2022/01/14 01:45:25;;;;;;;6.38;3.28;;;1.30;81.00;;;;;;5091940;28;20031;-73
2022/01/14 01:47:52;;;;;;;8.65;3.30;;;1.10;82.50;;;;;;5092623;28;20028;-73
2022/01/14 01:50:21;;;;;;;9.82;4.00;;;0.90;82.70;;;;;;5092344;28;20494;-73
2022/01/14 01:52:48;;;;;;;6.40;3.25;;;1.00;82.60;;;;;;5092984;28;20032;-73
2022/01/14 01:55:15;;;;;;;5.72;3.03;;;1.10;82.10;;;;;;5091655;28;20405;-73
2022/01/14 01:57:43;;;;;;;9.50;3.33;;;1.00;82.50;;;;;;5092783;28;20490;-73
2022/01/14 02:00:11;;;;;;;5.88;2.55;;;1.00;82.40;;;;;;5091865;28;20077;-73
2022/01/14 02:02:37;;;;;;;6.85;2.50;;;0.90;82.40;;;;;;5092396;28;20375;-73
2022/01/14 02:05:04;;;;;;;3.78;1.90;;;1.00;82.20;;;;;;5090561;28;20052;-73
2022/01/14 02:07:34;;;;;;;5.70;2.35;;;1.20;81.50;;;;;;5091431;28;20066;-73
2022/01/14 02:10:00;;;;;;;4.55;2.22;;;1.10;81.90;;;;;;5087464;28;20555;-73
2022/01/14 02:12:35;;;;;;;6.85;2.78;;;1.20;81.60;;;;;;5091949;28;20028;-73
2022/01/14 02:15:14;;;;;;;4.72;2.10;;;1.50;80.70;;;;;;5089510;28;20032;-73
2022/01/14 02:18:12;;;;;;;4.07;1.80;;;1.30;80.90;;;;;;5090528;28;20362;-73
2022/01/14 02:23:16;;;;;;;4.45;1.90;;;1.60;80.00;;;;;;5083178;28;20085;-73
2022/01/14 02:25:44;;;;;;;3.72;1.65;;;1.50;80.40;;;;;;5091887;28;20051;-73
2022/01/14 02:28:13;;;;;;;3.03;1.65;;;1.30;81.20;;;;;;5091186;28;20093;-73
2022/01/14 02:30:41;;;;;;;5.78;3.05;;;1.30;81.10;;;;;;5091945;28;20050;-73
2022/01/14 02:33:09;;;;;;;6.43;2.53;;;1.20;81.90;;;;;;5091210;28;20032;-73
2022/01/14 02:35:36;;;;;;;4.63;2.28;;;1.20;82.10;;;;;;5088582;28;20051;-73
2022/01/14 02:38:03;;;;;;;5.38;2.65;;;1.30;81.80;;;;;;5091254;28;20024;-73
2022/01/14 02:40:29;;;;;;;5.75;2.17;;;1.30;81.60;;;;;;5092004;28;20450;-73
2022/01/14 02:42:59;;;;;;;3.08;1.50;;;1.30;81.90;;;;;;5088637;28;20028;-73
2022/01/14 02:45:32;;;;;;;7.20;2.05;;;1.10;82.40;;;;;;5091645;28;20437;-73
2022/01/14 02:47:59;;;;;;;3.58;1.50;;;1.70;80.20;;;;;;5091256;28;20020;-73
2022/01/14 02:50:26;;;;;;;4.95;1.88;;;1.90;79.50;;;;;;5091057;28;20386;-73
2022/01/14 02:55:20;;;;;;;4.53;2.50;;;1.50;80.90;;;;;;5091314;28;20528;-73
2022/01/14 02:57:52;;;;;;;5.97;3.17;;;1.10;81.90;;;;;;5091548;28;20028;-73
2022/01/14 03:00:21;;;;;;;6.50;2.83;;;0.80;83.40;;;;;;5091070;28;20390;-73
2022/01/14 03:02:49;;;;;;;4.05;1.83;;;0.70;83.60;;;;;;5090217;28;20036;-73
2022/01/14 03:05:17;;;;;;;7.38;2.08;;;0.90;82.90;;;;;;5091019;28;20064;-73
2022/01/14 03:07:43;;;;;;;4.82;2.30;;;1.20;81.60;;;;;;5091266;28;20024;-73
2022/01/14 03:10:12;;;;;;;5.20;3.33;;;1.00;82.70;;;;;;5091170;28;20028;-73
2022/01/14 03:12:39;;;;;;;7.68;2.72;;;0.70;83.50;;;;;;5090953;28;20035;-73
2022/01/14 03:15:05;;;;;;;6.13;2.67;;;0.70;84.40;;;;;;5082188;28;20123;-73
2022/01/14 03:17:31;;;;;;;6.57;2.78;;;0.90;84.00;;;;;;5088236;28;20028;-73
2022/01/14 03:19:59;;;;;;;9.85;2.53;;;0.80;83.80;;;;;;5090819;28;20039;-73
2022/01/14 03:22:33;;;;;;;5.70;2.38;;;0.80;84.10;;;;;;5090450;28;20085;-73
2022/01/14 03:27:44;;;;;;;5.28;2.60;;;0.50;85.00;;;;;;5090758;28;20124;-73
2022/01/14 03:30:10;;;;;;;6.78;2.72;;;0.50;84.90;;;;;;5090491;28;20107;-73
2022/01/14 03:32:36;;;;;;;4.93;2.25;;;0.50;85.10;;;;;;5084868;28;20597;-73
2022/01/14 03:35:02;;;;;;;3.40;1.60;;;0.60;84.90;;;;;;5078681;28;20039;-73
2022/01/14 03:37:28;;;;;;;4.95;2.33;;;0.90;83.50;;;;;;5090007;28;20030;-73
2022/01/14 03:39:53;;;;;;;4.07;1.92;;;1.40;81.80;;;;;;5090734;28;20036;-73
2022/01/14 03:42:19;;;;;;;4.68;2.20;;;1.90;79.90;;;;;;5090711;28;20377;-73
2022/01/14 03:44:44;;;;;;;5.90;2.38;;;1.80;79.80;;;;;;5089314;28;20024;-73
2022/01/14 03:47:10;;;;;;;6.50;2.72;;;1.50;81.20;;;;;;5087764;28;20032;-73
2022/01/14 03:49:36;;;;;;;4.60;1.90;;;1.00;82.80;;;;;;5085162;28;20034;-73
2022/01/14 03:52:02;;;;;;;5.53;2.10;;;1.10;82.70;;;;;;5089869;28;20063;-73
2022/01/14 03:54:29;;;;;;;5.05;1.77;;;1.50;81.50;;;;;;5089198;28;20043;-73
2022/01/14 03:56:55;;;;;;;4.25;1.58;;;1.60;80.90;;;;;;5087733;28;20474;-73
2022/01/14 03:59:20;;;;;;;4.70;2.10;;;1.70;80.40;;;;;;5083230;28;20043;-73
2022/01/14 04:01:46;;;;;;;6.65;3.28;;;1.60;80.80;;;;;;5088733;28;20548;-71
2022/01/14 04:04:12;;;;;;;4.68;2.15;;;1.40;81.50;;;;;;5080938;28;20032;-71
2022/01/14 04:06:37;;;;;;;4.95;2.20;;;1.40;81.10;;;;;;5081259;28;20513;-71
2022/01/14 04:09:04;;;;;;;5.45;2.78;;;1.30;81.60;;;;;;5082447;28;20386;-71
2022/01/14 04:11:33;;;;;;;6.13;2.67;;;1.00;83.00;;;;;;5081461;28;20032;-71
2022/01/14 04:15:36;;;;;;;4.82;2.28;;;1.00;82.90;;;;;;5082220;28;20111;-71
2022/01/14 04:16:45;;;;;;;4.10;2.10;;;1.00;83.80;;;;;;5078894;28;20105;-71
2022/01/14 04:19:11;;;;;;;7.95;2.90;;;0.90;84.10;;;;;;5082206;28;20403;-71
2022/01/14 04:21:37;;;;;;;4.35;1.95;;;1.00;82.70;;;;;;5082616;28;20103;-71
2022/01/14 04:24:03;;;;;;;5.15;2.20;;;0.80;83.90;;;;;;5088374;28;20065;-71
2022/01/14 04:26:29;;;;;;;5.95;2.08;;;1.60;81.10;;;;;;5089548;28;20044;-71
2022/01/14 04:28:54;;;;;;;7.43;2.38;;;1.90;80.00;;;;;;5085054;28;20031;-71
2022/01/14 04:31:20;;;;;;;5.28;2.15;;;2.00;79.70;;;;;;5085303;28;20449;-71
2022/01/14 04:33:46;;;;;;;6.20;2.00;;;1.70;80.70;;;;;;5084563;28;20067;-71
2022/01/14 04:36:11;;;;;;;5.38;2.25;;;1.60;81.00;;;;;;5082793;28;20066;-71
2022/01/14 04:38:37;;;;;;;4.03;1.98;;;1.50;81.10;;;;;;5083553;28;20107;-71
2022/01/14 04:41:03;;;;;;;6.22;2.55;;;1.40;81.60;;;;;;5085779;28;20089;-71
2022/01/14 04:43:29;;;;;;;5.10;1.98;;;1.20;81.90;;;;;;5080091;28;20028;-71
2022/01/14 04:48:42;;;;;;;5.18;1.90;;;1.30;82.30;;;;;;5048149;28;20575;-71
2022/01/14 04:51:09;;;;;;;7.72;2.78;;;1.80;80.90;;;;;;5089685;28;20024;-71
2022/01/14 04:53:35;;;;;;;4.75;2.08;;;1.20;82.20;;;;;;5086823;28;20032;-71
2022/01/14 04:56:02;;;;;;;5.22;2.80;;;1.60;81.20;;;;;;5082477;28;20140;-71
2022/01/14 04:58:28;;;;;;;3.95;1.67;;;1.20;82.40;;;;;;5087065;28;20024;-71
2022/01/14 05:00:54;;;;;;;6.60;2.10;;;1.30;82.10;;;;;;5086605;28;20513;-72
2022/01/14 05:03:20;;;;;;;5.30;2.45;;;1.40;81.80;;;;;;5083545;28;20055;-71
2022/01/14 05:05:49;;;;;;;4.88;1.80;;;1.50;81.70;;;;;;5087826;28;20067;-71
2022/01/14 05:08:23;;;;;;;4.72;2.33;;;1.30;82.40;;;;;;5092422;28;20038;-71
2022/01/14 05:13:23;;;;;;;5.75;1.70;;;0.90;83.90;;;;;;5076538;28;20034;-71
2022/01/14 05:15:50;;;;;;;5.85;1.90;;;0.90;84.10;;;;;;5086486;28;20032;-71
2022/01/14 05:18:15;;;;;;;4.70;1.77;;;0.70;84.90;;;;;;5085276;28;20497;-71
2022/01/14 05:20:41;;;;;;;5.10;1.95;;;0.90;83.70;;;;;;5082534;28;20032;-71
2022/01/14 05:23:07;;;;;;;4.57;1.90;;;1.00;84.40;;;;;;5083792;28;20027;-71
2022/01/14 05:25:33;;;;;;;4.60;2.20;;;1.50;81.80;;;;;;5085474;28;20036;-71
2022/01/14 05:27:58;;;;;;;3.88;1.65;;;1.30;83.70;;;;;;5084974;28;20020;-71
2022/01/14 05:30:24;;;;;;;6.15;1.92;;;1.40;81.90;;;;;;5085788;28;20032;-71
2022/01/14 05:32:52;;;;;;;5.05;1.83;;;1.30;82.50;;;;;;5084301;28;20583;-71
2022/01/14 05:35:21;;;;;;;8.95;1.83;;;2.00;80.30;;;;;;5081806;28;20043;-71
2022/01/14 05:37:47;;;;;;;4.03;1.85;;;2.30;79.40;;;;;;5085092;28;20028;-71
2022/01/14 05:40:14;;;;;;;5.13;2.13;;;2.10;79.60;;;;;;5081447;28;20033;-71
2022/01/14 05:42:40;;;;;;;5.28;2.35;;;2.30;79.40;;;;;;5082139;28;20483;-71
2022/01/14 05:45:08;;;;;;;6.20;1.67;;;2.40;79.20;;;;;;5082429;28;20080;-71
2022/01/14 05:47:34;;;;;;;4.60;1.60;;;2.50;78.90;;;;;;5085561;28;20111;-71
2022/01/14 05:50:00;;;;;;;4.43;2.03;;;2.40;79.20;;;;;;5084492;28;20027;-71
2022/01/14 05:52:26;;;;;;;4.43;2.03;;;2.30;79.30;;;;;;5084810;28;20032;-71
2022/01/14 05:54:53;;;;;;;5.90;2.50;;;2.20;79.60;;;;;;5082520;28;20058;-71
2022/01/14 05:57:20;;;;;;;3.65;1.63;;;1.90;80.80;;;;;;5082657;28;20103;-71
2022/01/14 05:59:46;;;;;;;4.22;1.80;;;2.10;80.20;;;;;;5083754;28;20785;-71
2022/01/14 06:02:11;;;;;;;6.05;1.85;;;2.20;79.70;;;;;;5080700;28;20107;-71
2022/01/14 06:04:37;;;;;;;5.72;2.30;;;2.10;80.10;;;;;;5084360;28;20057;-72
2022/01/14 06:07:04;;;;;;;7.45;2.25;;;1.90;81.00;;;;;;5084864;28;20452;-71
2022/01/14 06:09:29;;;;;;;3.22;1.20;;;1.80;80.90;;;;;;5084385;28;20119;-71
2022/01/14 06:11:56;;;;;;;5.85;2.10;;;1.70;81.50;;;;;;5084040;28;20528;-71
2022/01/14 06:14:21;;;;;;;5.90;2.20;;;1.80;81.40;;;;;;5076208;28;20115;-71
2022/01/14 06:16:47;;;;;;;3.83;1.83;;;1.80;81.10;;;;;;5084563;28;20040;-71
2022/01/14 06:19:13;;;;;;;3.70;1.60;;;2.30;79.80;;;;;;5084724;28;20027;-71
2022/01/14 06:21:38;;;;;;;4.20;2.38;;;2.30;79.60;;;;;;5083735;28;20098;-71
2022/01/14 06:24:04;;;;;;;4.95;2.00;;;1.80;81.20;;;;;;5083900;28;20044;-71
2022/01/14 06:26:30;;;;;;;3.75;1.73;;;1.50;82.40;;;;;;5084188;28;20055;-71
2022/01/14 06:28:56;;;;;;;4.53;1.83;;;1.80;81.30;;;;;;5084506;28;20627;-71
2022/01/14 06:31:22;;;;;;;4.22;2.20;;;1.60;82.10;;;;;;5082978;28;20035;-72
2022/01/14 06:33:47;;;;;;;5.97;2.03;;;1.70;81.50;;;;;;5083711;28;20096;-71
2022/01/14 06:36:14;;;;;;;5.43;2.40;;;2.10;80.60;;;;;;5083476;28;20040;-71
2022/01/14 06:38:39;;;;;;;6.82;2.55;;;1.90;81.50;;;;;;5083158;28;20096;-71
2022/01/14 06:41:05;;;;;;;4.45;2.30;;;1.40;82.50;;;;;;5079481;28;20028;-71
2022/01/14 06:43:31;;;;;;;4.10;1.90;;;1.20;84.10;;;;;;5084264;28;20080;-72
2022/01/14 06:45:57;;;;;;;7.47;2.28;;;1.10;84.20;;;;;;5086379;28;20020;-73
2022/01/14 06:48:23;;;;;;;8.30;2.30;;;1.10;84.30;;;;;;5080829;28;20023;-76
2022/01/14 06:50:49;;;;;;;7.43;2.50;;;0.90;84.50;;;;;;5083981;28;20032;-76
2022/01/14 06:53:15;;;;;;;3.85;1.88;;;0.90;84.80;;;;;;5081687;28;20026;-73
2022/01/14 06:55:40;;;;;;;4.72;1.73;;;1.60;82.80;;;;;;5069910;28;20078;-74
2022/01/14 06:58:06;;;;;;;3.30;1.70;;;1.60;83.50;;;;;;5080709;28;20039;-75
2022/01/14 07:00:33;;;;;;;3.47;1.60;;;1.70;82.40;;;;;;5083503;28;20058;-75
2022/01/14 07:03:00;;;;;;;7.13;1.60;;;1.90;81.40;;;;;;5084342;28;20107;-75
2022/01/14 07:05:26;;;;;;;4.57;1.52;;;2.10;80.70;;;;;;5078867;28;20039;-75
2022/01/14 07:07:52;;;;;;;4.00;1.60;;;2.10;80.60;;;;;;5083810;28;20032;-75
2022/01/14 07:10:17;;;;;;;5.97;2.00;;;2.10;80.90;;;;;;5082721;28;20074;-75
2022/01/14 07:12:44;;;;;;;7.97;2.95;;;2.10;80.90;;;;;;5083484;28;20117;-75
2022/01/14 07:15:12;;;;;;;6.07;1.80;;;2.30;80.60;;;;;;5082778;28;20084;-74
2022/01/14 07:17:40;;;;;;;4.45;2.33;;;2.40;80.00;;;;;;5082447;28;20584;-75
2022/01/14 07:20:11;;;;;;;3.83;1.73;;;2.10;80.50;;;;;;5081798;28;20024;-75
2022/01/14 07:22:37;;;;;;;3.67;1.58;;;2.20;80.60;;;;;;5079976;28;20647;-74
2022/01/14 07:25:03;;;;;;;2.22;1.27;;;2.50;80.00;;;;;;5082050;28;20028;-74
2022/01/14 07:27:29;;;;;;;4.50;1.98;;;2.50;80.00;;;;;;5079374;28;20067;-75
2022/01/14 07:29:55;;;;;;;5.35;2.20;;;2.40;80.20;;;;;;5080096;28;20592;-75
2022/01/14 07:32:21;;;;;;;7.95;2.70;;;2.20;81.50;;;;;;5082433;28;20107;-75
2022/01/14 07:34:48;;;;;;;4.15;1.98;;;1.70;82.20;;;;;;5082069;28;20024;-75
2022/01/14 07:37:15;;;;;;;3.38;1.73;;;1.70;82.40;;;;;;5077358;28;20535;-77
2022/01/14 07:39:41;;;;;;;3.97;1.65;;;2.10;80.80;;;;;;5060368;28;20528;-75
2022/01/14 07:42:07;;;;;;;6.18;2.42;;;2.30;80.60;;;;;;5080832;28;20028;-75
2022/01/14 07:44:33;;;;;;;5.47;1.88;;;2.10;81.40;;;;;;5079577;28;20039;-74
2022/01/14 07:46:59;;;;;;;4.32;1.70;;;2.10;81.30;;;;;;5081263;28;20031;-75
2022/01/14 07:49:25;;;;;;;9.10;4.00;;;2.20;80.80;;;;;;5078422;28;20103;-74
2022/01/14 07:51:51;;;;;;;6.40;3.08;;;2.00;81.60;;;;;;5075059;28;20024;-75
2022/01/14 07:54:17;;;;;;;5.43;2.50;;;1.20;83.90;;;;;;5081342;28;20052;-75
2022/01/14 07:56:45;;;;;;;4.22;1.85;;;1.40;84.00;;;;;;5077491;28;20042;-75
2022/01/14 07:59:13;;;;;;;4.47;1.80;;;1.80;82.80;;;;;;5081613;28;20031;-75
2022/01/14 08:01:40;;;;;;;6.05;2.58;;;2.20;81.20;;;;;;5081338;28;20451;-75
2022/01/14 08:04:06;;;;;;;5.40;1.98;;;2.10;81.60;;;;;;5082765;28;20039;-75
2022/01/14 08:06:37;;;;;;;3.10;1.50;;;1.80;82.20;;;;;;5079205;28;20028;-75
2022/01/14 08:09:03;;;;;;;2.95;1.48;;;1.90;83.10;;;;;;5084826;28;20071;-75
2022/01/14 08:11:29;;;;;;;5.72;1.67;;;2.20;81.10;;;;;;5088715;28;20070;-75
2022/01/14 08:13:55;;;;;;;3.95;2.05;;;2.40;80.70;;;;;;5083089;28;20062;-75
2022/01/14 08:16:21;;;;;;;8.00;3.38;;;2.00;81.70;;;;;;5080381;28;20036;-75
2022/01/14 08:18:47;;;;;;;2.80;1.20;;;2.60;80.10;;;;;;5082459;28;20358;-75
2022/01/14 08:21:14;;;;;;;6.47;2.10;;;2.60;79.80;;;;;;5078268;28;20035;-75
2022/01/14 08:23:40;;;;;;;6.03;2.00;;;2.50;80.60;;;;;;5077030;28;20502;-75
2022/01/14 08:26:05;;;;;;;3.35;1.30;;;2.10;81.70;;;;;;5082402;28;20115;-75
2022/01/14 08:28:31;;;;;;;4.95;1.92;;;2.40;80.50;;;;;;5080915;28;20486;-75
2022/01/14 08:30:57;;;;;;;4.80;1.67;;;2.40;80.70;;;;;;5078981;28;20028;-75
2022/01/14 08:33:23;;;;;;;5.38;2.10;;;2.50;80.90;;;;;;5075868;28;20036;-75
2022/01/14 08:35:49;;;;;;;6.53;2.35;;;2.60;80.10;;;;;;5082859;28;20511;-75
2022/01/14 08:38:14;;;;;;;4.65;1.60;;;2.50;80.90;;;;;;5082103;28;20028;-75
2022/01/14 08:40:41;;;;;;;4.88;2.10;;;2.60;80.20;;;;;;5080719;28;20020;-75
2022/01/14 08:43:07;;;;;;;5.65;3.03;;;2.40;81.20;;;;;;5080126;28;20374;-75
2022/01/14 08:45:33;;;;;;;7.10;3.00;;;1.90;82.30;;;;;;5084220;28;20024;-75
2022/01/14 08:47:59;;;;;;;5.65;2.90;;;2.10;81.80;;;;;;5081623;28;20473;-75
2022/01/14 08:50:30;;;;;;;7.22;3.05;;;1.80;82.60;;;;;;5080042;28;20029;-74
2022/01/14 08:52:57;;;;;;;5.68;2.20;;;2.00;82.20;;;;;;5083286;28;20110;-74
2022/01/14 08:55:23;;;;;;;6.15;2.55;;;2.10;82.50;;;;;;5079105;28;20084;-74
2022/01/14 08:57:49;;;;;;;5.88;2.63;;;1.80;83.10;;;;;;5067749;28;20028;-74
2022/01/14 09:00:16;;;;;;;5.78;2.55;;;1.50;84.30;;;;;;5077444;28;20591;-74
2022/01/14 09:02:42;;;;;;;7.55;2.50;;;1.30;84.60;;;;;;5078158;28;20028;-74
2022/01/14 09:05:09;;;;;;;6.38;2.65;;;1.30;84.70;;;;;;5079447;28;20043;-74
2022/01/14 09:07:35;;;;;;;4.53;2.42;;;1.50;84.20;;;;;;5082673;28;20027;-74
2022/01/14 09:10:02;;;;;;;9.15;4.45;;;1.70;84.50;;;;;;5081658;28;20036;-74
2022/01/14 09:12:28;;;;;;;6.13;2.97;;;2.10;82.60;;;;;;5082570;28;20035;-74
2022/01/14 09:14:54;;;;;;;5.28;2.28;;;2.00;82.60;;;;;;5082038;28;20111;-75
2022/01/14 09:17:20;;;;;;;7.82;1.95;;;2.30;82.00;;;;;;5073360;28;20073;-74
2022/01/14 09:19:46;;;;;;;5.88;2.97;;;2.30;82.10;;;;;;5081141;28;20028;-74
2022/01/14 09:22:17;;;;;;;7.53;3.35;;;2.30;82.20;;;;;;5086303;28;20054;-74
2022/01/14 09:24:45;;;;;;;6.25;2.75;;;2.00;82.90;;;;;;5082025;28;20612;-74
2022/01/14 09:27:11;;;;;;;7.30;3.38;;;2.10;82.50;;;;;;5082573;28;20670;-74
2022/01/14 09:29:37;;;;;;;11.68;5.03;;;2.30;82.40;;;;;;5083142;28;20459;-74
2022/01/14 09:32:03;;;;;;;9.73;3.67;;;2.10;83.30;;;;;;5082079;28;20020;-74
2022/01/14 09:34:28;;;;;;;7.00;2.60;;;1.80;83.10;;;;;;5084518;28;20581;-74
2022/01/14 09:36:54;;;;;;;4.97;1.90;;;2.50;81.60;;;;;;5095848;28;20039;-74
2022/01/14 09:39:20;;;;;;;10.07;2.92;;;2.60;81.10;;;;;;5085207;28;20094;-74
2022/01/14 09:41:47;;;;;;;5.53;2.20;;;2.50;81.70;;;;;;5087476;28;20647;-74
2022/01/14 09:44:17;;;;;;;4.47;1.73;;;2.40;82.10;;;;;;5084307;28;20510;-75
2022/01/14 09:46:42;;;;;;;4.03;1.95;;;2.50;81.90;;;;;;5088601;28;20028;-74
2022/01/14 09:49:08;;;;;;;9.98;2.80;;;2.90;80.60;;;;;;5092944;28;20031;-74
2022/01/14 09:51:34;;;;;;;4.25;1.85;;;2.80;81.40;;;;;;5090845;28;20031;-74
2022/01/14 09:54:00;;;;;;;5.25;2.13;;;2.90;80.10;;;;;;5087008;28;20430;-74
2022/01/14 09:56:26;;;;;;;6.10;2.13;;;3.10;80.50;;;;;;5087388;28;20509;-75
2022/01/14 09:58:57;;;;;;;3.67;1.85;;;2.90;80.90;;;;;;5089071;28;20035;-75
2022/01/14 10:01:24;;;;;;;5.50;2.28;;;2.70;81.40;;;;;;5088198;28;20415;-74
2022/01/14 10:04:00;;;;;;;4.35;1.80;;;2.80;81.50;;;;;;5081012;28;20073;-74
2022/01/14 10:06:42;;;;;;;5.47;1.70;;;3.10;80.10;;;;;;5088404;28;20111;-76
2022/01/14 10:09:10;;;;;;;3.25;1.83;;;3.10;79.90;;;;;;5084913;28;20152;-77
2022/01/14 10:11:37;;;;;;;4.28;1.92;;;3.10;80.30;;;;;;5087128;28;20502;-76
2022/01/14 10:14:17;;;;;;;4.18;1.98;;;3.00;80.50;;;;;;5087865;28;20111;-75
2022/01/14 10:16:44;;;;;;;4.35;2.42;;;3.00;82.10;;;;;;5087833;28;20036;-74
2022/01/14 10:19:28;;;;;;;6.05;2.03;;;3.20;81.00;;;;;;5085746;28;20549;-75
2022/01/14 10:21:55;;;;;;;5.15;2.55;;;3.20;80.20;;;;;;5086844;28;20028;-74
2022/01/14 10:24:23;;;;;;;6.60;2.70;;;3.20;80.30;;;;;;5085668;28;20035;-74
2022/01/14 10:27:02;;;;;;;8.40;2.35;;;3.10;80.50;;;;;;5086434;28;20055;-74
2022/01/14 10:29:39;;;;;;;6.00;2.65;;;3.10;80.80;;;;;;5079853;28;20461;-75
2022/01/14 10:32:07;;;;;;;5.78;2.60;;;3.10;80.80;;;;;;5087617;28;20032;-74
2022/01/14 10:34:34;;;;;;;3.55;1.88;;;3.30;80.60;;;;;;5067726;28;20039;-74
2022/01/14 10:37:15;;;;;;;5.65;2.25;;;3.10;81.40;;;;;;5083989;28;20032;-74
2022/01/14 10:39:44;;;;;;;4.10;2.08;;;3.00;81.50;;;;;;5082556;28;20036;-74
2022/01/14 10:42:29;;;;;;;7.88;2.22;;;3.00;81.80;;;;;;5085290;28;20126;-74
2022/01/14 10:45:09;;;;;;;5.93;1.85;;;3.00;81.90;;;;;;5068442;28;20673;-74
2022/01/14 10:47:35;;;;;;;5.10;2.15;;;3.30;81.00;;;;;;5086497;28;20567;-75
2022/01/14 10:50:01;;;;;;;5.57;2.00;;;3.40;82.30;;;;;;5086712;28;20054;-74
2022/01/14 10:52:27;;;;;;;6.30;2.13;;;3.80;79.70;;;;;;5086914;28;20541;-74
2022/01/14 10:54:56;;;;;;;4.70;1.98;;;4.00;79.50;;;;;;5085644;28;20343;-75
2022/01/14 10:57:28;;;;;;;11.77;2.92;;;4.20;79.90;;;;;;5085485;28;20085;-75
2022/01/14 10:59:56;;;;;;;6.57;3.08;;;4.10;81.10;;;;;;5085947;28;20378;-74
2022/01/14 11:02:41;;;;;;;8.88;3.88;;;3.90;81.20;;;;;;5087529;28;20039;-75
2022/01/14 11:05:12;;;;;;;5.80;2.78;;;4.00;81.20;;;;;;5087627;28;20488;-75
2022/01/14 11:07:40;;;;;;;5.97;2.35;;;4.00;80.70;;;;;;5088614;28;20036;-75
2022/01/14 11:10:22;;;;;;;4.72;2.30;;;4.20;80.60;;;;;;5082908;28;20060;-75
2022/01/14 11:12:49;;;;;;;14.82;2.67;;;4.40;81.10;;;;;;5076179;28;20534;-76
2022/01/14 11:15:15;;;;;;;10.77;3.35;;;4.70;79.60;;;;;;5082242;28;20036;-75
2022/01/14 11:17:42;;;;;;;6.30;2.72;;;4.80;80.20;;;;;;5082697;28;20024;-75
2022/01/14 11:20:10;;;;;;;6.68;3.05;;;4.70;80.00;;;;;;5083433;28;20035;-75
2022/01/14 11:25:21;;;;;;;;;;;4.70;79.50;;;;;;5080215;28;20062;-74
2022/01/14 11:27:59;;;;;;;10.15;5.47;;;4.90;78.90;;;;;;5081284;28;19932;-75
2022/01/14 11:30:38;;;;;;;8.13;3.60;;;5.00;79.10;;;;;;5081283;28;20494;-74
2022/01/14 11:33:05;;;;;;;6.65;3.13;;;5.30;78.10;;;;;;5081978;28;20359;-74
2022/01/14 11:35:32;;;;;;;5.25;3.22;;;5.60;77.70;;;;;;5081836;28;20481;-74
2022/01/14 11:37:59;;;;;;;6.72;2.72;;;5.70;78.00;;;;;;5080283;28;20080;-74
2022/01/14 11:40:25;;;;;;;8.13;2.80;;;5.70;78.80;;;;;;5085967;28;20028;-75
2022/01/14 11:42:59;;;;;;;6.30;2.60;;;5.60;79.10;;;;;;5084882;28;20032;-74
2022/01/14 11:45:46;;;;;;;6.22;2.85;;;5.50;78.90;;;;;;5080659;28;20036;-75
2022/01/14 11:48:47;;;;;;;7.38;2.47;;;5.60;78.70;;;;;;5062481;28;20036;-74
2022/01/14 11:51:15;;;;;;;9.13;2.60;;;5.70;78.70;;;;;;5057427;28;20064;-74
2022/01/14 11:53:42;;;;;;;4.88;2.45;;;5.80;78.30;;;;;;5084531;28;20032;-75
2022/01/14 11:56:31;;;;;;;7.15;3.13;;;5.80;77.80;;;;;;5066679;28;20437;-74
2022/01/14 11:59:20;;;;;;;6.07;2.97;;;5.70;78.10;;;;;;5079893;28;20028;-74
2022/01/14 12:01:53;;;;;;;6.00;2.72;;;5.90;78.80;;;;;;5083254;28;20518;-74
2022/01/14 12:04:19;;;;;;;6.97;2.30;;;5.90;78.70;;;;;;5085481;28;20036;-75
2022/01/14 12:06:50;;;;;;;4.53;2.05;;;6.00;77.80;;;;;;5084703;28;20032;-74
2022/01/14 12:09:27;;;;;;;4.53;2.08;;;6.10;77.80;;;;;;5086060;28;20040;-74
2022/01/14 12:12:28;;;;;;;4.55;1.70;;;6.40;77.40;;;;;;5081282;28;20061;-74
2022/01/14 12:15:00;;;;;;;4.63;1.83;;;6.80;76.20;;;;;;5080385;28;20024;-74
2022/01/14 12:17:37;;;;;;;4.50;2.25;;;6.90;75.80;;;;;;5084265;28;20547;-74
2022/01/14 12:20:19;;;;;;;5.75;1.85;;;6.90;75.80;;;;;;5082938;28;20032;-74
2022/01/14 12:23:08;;;;;;;5.07;1.90;;;7.10;74.90;;;;;;5075351;28;20432;-72
2022/01/14 12:25:43;;;;;;;4.82;2.30;;;7.40;74.60;;;;;;5084770;28;20048;-73
2022/01/14 12:28:21;;;;;;;5.03;2.25;;;7.30;74.90;;;;;;5089046;28;20028;-73
2022/01/14 12:31:03;;;;;;;7.20;2.28;;;7.10;76.10;;;;;;5087752;28;20047;-72
2022/01/14 12:33:50;;;;;;;6.47;2.40;;;7.20;76.50;;;;;;5082373;28;20508;-73
2022/01/14 12:36:19;;;;;;;5.03;2.45;;;7.20;76.10;;;;;;5078979;28;20036;-73
2022/01/14 12:38:46;;;;;;;3.63;1.60;;;7.10;75.30;;;;;;5080378;28;20032;-73
2022/01/14 12:41:15;;;;;;;5.10;1.98;;;7.30;74.80;;;;;;5078543;28;20312;-73
2022/01/14 12:43:51;;;;;;;4.22;1.88;;;7.30;74.60;;;;;;5084003;28;20066;-73
2022/01/14 12:46:45;;;;;;;5.10;1.73;;;7.20;74.40;;;;;;5087764;28;20089;-73
2022/01/14 12:49:20;;;;;;;4.13;2.30;;;7.20;75.60;;;;;;5079357;28;20035;-73
2022/01/14 12:51:46;;;;;;;4.38;2.10;;;7.30;75.20;;;;;;5079472;28;20028;-73
2022/01/14 12:54:12;;;;;;;7.15;2.45;;;7.20;75.20;;;;;;5085086;28;20099;-73
2022/01/14 12:56:41;;;;;;;6.85;2.00;;;7.40;74.60;;;;;;5076476;28;20048;-73
2022/01/14 12:59:10;;;;;;;5.53;1.67;;;7.40;75.00;;;;;;5086243;28;20024;-73
2022/01/14 13:01:50;;;;;;;5.97;2.40;;;7.30;75.10;;;;;;5085906;28;20081;-73
2022/01/14 13:04:18;;;;;;;3.83;1.70;;;7.10;74.90;;;;;;5081897;28;20539;-73
2022/01/14 13:06:52;;;;;;;4.88;1.65;;;7.00;74.90;;;;;;5082316;28;20403;-73
2022/01/14 13:09:23;;;;;;;6.40;2.15;;;7.20;75.40;;;;;;5095580;28;20026;-73
2022/01/14 13:11:58;;;;;;;5.63;2.22;;;7.40;75.70;;;;;;5087013;28;20061;-73
2022/01/14 13:14:31;;;;;;;8.00;2.50;;;7.60;75.80;;;;;;5088263;28;20028;-73
2022/01/14 13:17:00;;;;;;;5.90;2.60;;;7.60;75.80;;;;;;5087303;28;20035;-73
2022/01/14 13:19:34;;;;;;;8.48;2.50;;;7.60;75.90;;;;;;5078896;28;20517;-73
2022/01/14 13:22:09;;;;;;;5.95;2.28;;;7.60;76.10;;;;;;5086067;28;20093;-73
2022/01/14 13:24:37;;;;;;;5.63;2.42;;;7.60;76.30;;;;;;5089142;28;20072;-73
2022/01/14 13:27:08;;;;;;;5.28;3.00;;;7.50;76.10;;;;;;5088008;28;20048;-73
2022/01/14 13:29:38;;;;;;;6.07;1.92;;;7.40;75.70;;;;;;5089289;28;20032;-73
2022/01/14 13:32:05;;;;;;;7.22;3.10;;;7.40;75.20;;;;;;5070075;28;20032;-73